sensor_id;sensor_type;location;lat;lon;timestamp;temperature;humidity
49052;DHT22;34866;48.670;18.260;2023-02-19T00:01:14;230.60;6502.40
49052;DHT22;34866;48.670;18.260;2023-02-19T00:03:40;230.70;6502.40
49052;DHT22;34866;48.670;18.260;2023-02-19T00:06:08;230.80;6502.40
49052;DHT22;34866;48.670;18.260;2023-02-19T00:08:36;230.80;6502.40
49052;DHT22;34866;48.670;18.260;2023-02-19T00:11:05;230.70;6502.40
49052;DHT22;34866;48.670;18.260;2023-02-19T00:13:35;230.50;6502.40
49052;DHT22;34866;48.670;18.260;2023-02-19T00:16:08;230.70;6502.40
49052;DHT22;34866;48.670;18.260;2023-02-19T00:18:35;230.80;6502.40
49052;DHT22;34866;48.670;18.260;2023-02-19T00:21:01;230.50;6502.40
49052;DHT22;34866;48.670;18.260;2023-02-19T00:23:27;230.60;6502.40
49052;DHT22;34866;48.670;18.260;2023-02-19T00:25:53;230.50;6502.40
49052;DHT22;34866;48.670;18.260;2023-02-19T00:28:19;230.50;6502.40
49052;DHT22;34866;48.670;18.260;2023-02-19T00:30:45;230.40;6502.40
49052;DHT22;34866;48.670;18.260;2023-02-19T00:33:10;230.70;6502.40
49052;DHT22;34866;48.670;18.260;2023-02-19T00:35:36;230.80;6502.40
49052;DHT22;34866;48.670;18.260;2023-02-19T00:38:09;231.10;6502.40
49052;DHT22;34866;48.670;18.260;2023-02-19T00:40:35;230.90;6502.40
49052;DHT22;34866;48.670;18.260;2023-02-19T00:43:02;230.70;6502.40
49052;DHT22;34866;48.670;18.260;2023-02-19T00:45:27;230.60;6502.40
49052;DHT22;34866;48.670;18.260;2023-02-19T00:47:53;230.50;6502.40
49052;DHT22;34866;48.670;18.260;2023-02-19T00:50:19;205.60;6502.40
49052;DHT22;34866;48.670;18.260;2023-02-19T00:52:44;205.60;6502.40
49052;DHT22;34866;48.670;18.260;2023-02-19T00:55:10;205.70;6502.40
49052;DHT22;34866;48.670;18.260;2023-02-19T00:57:35;205.60;6502.40
49052;DHT22;34866;48.670;18.260;2023-02-19T01:00:01;205.60;6502.40
49052;DHT22;34866;48.670;18.260;2023-02-19T01:02:27;205.60;6502.40
49052;DHT22;34866;48.670;18.260;2023-02-19T01:05:06;205.50;6502.40
49052;DHT22;34866;48.670;18.260;2023-02-19T01:07:35;205.50;6502.40
49052;DHT22;34866;48.670;18.260;2023-02-19T01:10:00;205.40;6502.40
49052;DHT22;34866;48.670;18.260;2023-02-19T01:12:26;205.20;6502.40
49052;DHT22;34866;48.670;18.260;2023-02-19T01:14:53;205.20;6502.40
49052;DHT22;34866;48.670;18.260;2023-02-19T01:17:19;205.30;6502.40
49052;DHT22;34866;48.670;18.260;2023-02-19T01:19:45;205.20;6502.40
49052;DHT22;34866;48.670;18.260;2023-02-19T01:22:11;205.70;6502.40
49052;DHT22;34866;48.670;18.260;2023-02-19T01:24:37;205.70;6502.40
49052;DHT22;34866;48.670;18.260;2023-02-19T01:27:03;205.70;6502.40
49052;DHT22;34866;48.670;18.260;2023-02-19T01:29:29;205.70;6502.40
49052;DHT22;34866;48.670;18.260;2023-02-19T01:31:55;205.60;6502.40
49052;DHT22;34866;48.670;18.260;2023-02-19T01:34:20;205.70;6502.40
49052;DHT22;34866;48.670;18.260;2023-02-19T01:36:46;205.70;6502.40
49052;DHT22;34866;48.670;18.260;2023-02-19T01:39:11;205.50;6502.40
49052;DHT22;34866;48.670;18.260;2023-02-19T01:41:39;205.50;6502.40
49052;DHT22;34866;48.670;18.260;2023-02-19T01:45:10;205.40;6502.40
49052;DHT22;34866;48.670;18.260;2023-02-19T01:46:53;205.60;6502.40
49052;DHT22;34866;48.670;18.260;2023-02-19T01:49:28;205.40;6502.40
49052;DHT22;34866;48.670;18.260;2023-02-19T01:52:18;205.30;6502.40
49052;DHT22;34866;48.670;18.260;2023-02-19T01:54:45;205.60;6502.40
49052;DHT22;34866;48.670;18.260;2023-02-19T01:57:34;230.40;6502.40
49052;DHT22;34866;48.670;18.260;2023-02-19T02:00:07;205.60;6502.40
49052;DHT22;34866;48.670;18.260;2023-02-19T02:02:33;230.90;6502.40
49052;DHT22;34866;48.670;18.260;2023-02-19T02:04:59;231.00;6502.40
49052;DHT22;34866;48.670;18.260;2023-02-19T02:07:25;230.90;6502.40
49052;DHT22;34866;48.670;18.260;2023-02-19T02:10:09;230.70;6502.40
49052;DHT22;34866;48.670;18.260;2023-02-19T02:12:48;230.40;6502.40
49052;DHT22;34866;48.670;18.260;2023-02-19T02:15:15;205.70;6502.40
49052;DHT22;34866;48.670;18.260;2023-02-19T02:18:01;205.60;6502.40
49052;DHT22;34866;48.670;18.260;2023-02-19T02:20:46;205.60;6502.40
49052;DHT22;34866;48.670;18.260;2023-02-19T02:23:27;205.60;6502.40
49052;DHT22;34866;48.670;18.260;2023-02-19T02:34:11;205.60;6502.40
49052;DHT22;34866;48.670;18.260;2023-02-19T02:36:41;205.60;6502.40
49052;DHT22;34866;48.670;18.260;2023-02-19T02:39:12;205.50;6502.40
49052;DHT22;34866;48.670;18.260;2023-02-19T02:41:43;205.50;6502.40
49052;DHT22;34866;48.670;18.260;2023-02-19T02:44:09;205.60;6502.40
49052;DHT22;34866;48.670;18.260;2023-02-19T02:46:37;205.50;6502.40
49052;DHT22;34866;48.670;18.260;2023-02-19T02:49:09;205.70;6502.40
49052;DHT22;34866;48.670;18.260;2023-02-19T02:51:43;205.70;6502.40
49052;DHT22;34866;48.670;18.260;2023-02-19T02:54:15;230.40;6502.40
49052;DHT22;34866;48.670;18.260;2023-02-19T02:57:01;230.50;6502.40
49052;DHT22;34866;48.670;18.260;2023-02-19T02:59:30;230.50;6502.40
49052;DHT22;34866;48.670;18.260;2023-02-19T03:02:06;230.60;6502.40
49052;DHT22;34866;48.670;18.260;2023-02-19T03:07:49;230.40;6502.40
49052;DHT22;34866;48.670;18.260;2023-02-19T03:10:22;230.40;6502.40
49052;DHT22;34866;48.670;18.260;2023-02-19T03:12:52;230.40;6502.40
49052;DHT22;34866;48.670;18.260;2023-02-19T03:15:42;230.40;6502.40
49052;DHT22;34866;48.670;18.260;2023-02-19T03:18:50;230.40;6502.40
49052;DHT22;34866;48.670;18.260;2023-02-19T03:21:38;230.60;6502.40
49052;DHT22;34866;48.670;18.260;2023-02-19T03:24:05;230.50;6502.40
49052;DHT22;34866;48.670;18.260;2023-02-19T03:26:51;230.70;6502.40
49052;DHT22;34866;48.670;18.260;2023-02-19T03:29:22;230.60;6502.40
49052;DHT22;34866;48.670;18.260;2023-02-19T03:31:57;230.40;6502.40
49052;DHT22;34866;48.670;18.260;2023-02-19T03:34:45;205.70;6502.40
49052;DHT22;34866;48.670;18.260;2023-02-19T03:37:33;205.70;6502.40
49052;DHT22;34866;48.670;18.260;2023-02-19T03:39:59;205.60;6502.40
49052;DHT22;34866;48.670;18.260;2023-02-19T03:42:41;230.40;6502.40
49052;DHT22;34866;48.670;18.260;2023-02-19T03:45:43;205.70;6502.40
49052;DHT22;34866;48.670;18.260;2023-02-19T03:51:07;205.60;6502.40
49052;DHT22;34866;48.670;18.260;2023-02-19T03:53:52;205.50;6502.40
49052;DHT22;34866;48.670;18.260;2023-02-19T03:59:09;205.70;6502.40
49052;DHT22;34866;48.670;18.260;2023-02-19T04:01:38;205.50;6502.40
49052;DHT22;34866;48.670;18.260;2023-02-19T04:06:46;205.50;179.20
49052;DHT22;34866;48.670;18.260;2023-02-19T04:09:18;205.40;691.20
49052;DHT22;34866;48.670;18.260;2023-02-19T04:11:45;205.40;870.40
49052;DHT22;34866;48.670;18.260;2023-02-19T04:14:39;205.40;998.40
49052;DHT22;34866;48.670;18.260;2023-02-19T04:17:16;205.30;1356.80
49052;DHT22;34866;48.670;18.260;2023-02-19T04:19:44;205.40;1382.40
49052;DHT22;34866;48.670;18.260;2023-02-19T04:22:13;205.30;1894.40
49052;DHT22;34866;48.670;18.260;2023-02-19T04:24:46;205.40;1868.80
49052;DHT22;34866;48.670;18.260;2023-02-19T04:27:13;205.20;2252.80
49052;DHT22;34866;48.670;18.260;2023-02-19T04:29:39;205.10;2252.80
49052;DHT22;34866;48.670;18.260;2023-02-19T04:32:05;205.10;2252.80
49052;DHT22;34866;48.670;18.260;2023-02-19T04:34:31;205.10;2252.80
49052;DHT22;34866;48.670;18.260;2023-02-19T04:36:57;205.00;2252.80
49052;DHT22;34866;48.670;18.260;2023-02-19T04:39:22;205.00;2252.80
49052;DHT22;34866;48.670;18.260;2023-02-19T04:41:48;205.00;2252.80
49052;DHT22;34866;48.670;18.260;2023-02-19T04:44:14;204.90;2252.80
49052;DHT22;34866;48.670;18.260;2023-02-19T04:46:40;205.00;2252.80
49052;DHT22;34866;48.670;18.260;2023-02-19T04:49:05;205.00;2252.80
49052;DHT22;34866;48.670;18.260;2023-02-19T04:51:31;204.90;2252.80
49052;DHT22;34866;48.670;18.260;2023-02-19T04:53:57;204.80;2252.80
49052;DHT22;34866;48.670;18.260;2023-02-19T04:56:22;204.90;2252.80
49052;DHT22;34866;48.670;18.260;2023-02-19T04:58:48;204.90;2252.80
49052;DHT22;34866;48.670;18.260;2023-02-19T05:01:14;204.90;2252.80
49052;DHT22;34866;48.670;18.260;2023-02-19T05:03:40;205.00;2252.80
49052;DHT22;34866;48.670;18.260;2023-02-19T05:06:08;205.00;2252.80
49052;DHT22;34866;48.670;18.260;2023-02-19T05:08:35;205.10;2252.80
49052;DHT22;34866;48.670;18.260;2023-02-19T05:11:02;205.10;2252.80
49052;DHT22;34866;48.670;18.260;2023-02-19T05:13:29;205.10;2252.80
49052;DHT22;34866;48.670;18.260;2023-02-19T05:16:01;205.00;2252.80
49052;DHT22;34866;48.670;18.260;2023-02-19T05:18:27;205.10;2252.80
49052;DHT22;34866;48.670;18.260;2023-02-19T05:20:53;205.00;2252.80
49052;DHT22;34866;48.670;18.260;2023-02-19T05:23:20;205.10;2252.80
49052;DHT22;34866;48.670;18.260;2023-02-19T05:25:46;205.00;2252.80
49052;DHT22;34866;48.670;18.260;2023-02-19T05:28:11;205.10;2252.80
49052;DHT22;34866;48.670;18.260;2023-02-19T05:30:51;205.10;2252.80
49052;DHT22;34866;48.670;18.260;2023-02-19T05:33:18;205.00;2252.80
49052;DHT22;34866;48.670;18.260;2023-02-19T05:35:49;205.00;2252.80
49052;DHT22;34866;48.670;18.260;2023-02-19T05:38:15;205.10;2252.80
49052;DHT22;34866;48.670;18.260;2023-02-19T05:40:41;205.20;2252.80
49052;DHT22;34866;48.670;18.260;2023-02-19T05:43:07;205.10;2252.80
49052;DHT22;34866;48.670;18.260;2023-02-19T05:45:34;205.10;2252.80
49052;DHT22;34866;48.670;18.260;2023-02-19T05:48:01;230.40;2252.80
49052;DHT22;34866;48.670;18.260;2023-02-19T05:50:26;205.30;2252.80
49052;DHT22;34866;48.670;18.260;2023-02-19T05:52:52;205.00;2252.80
49052;DHT22;34866;48.670;18.260;2023-02-19T05:55:18;205.60;2022.40
49052;DHT22;34866;48.670;18.260;2023-02-19T05:57:46;205.50;2150.40
49052;DHT22;34866;48.670;18.260;2023-02-19T06:00:17;205.50;1996.80
49052;DHT22;34866;48.670;18.260;2023-02-19T06:02:44;205.50;1971.20
49052;DHT22;34866;48.670;18.260;2023-02-19T06:05:10;205.60;1689.60
49052;DHT22;34866;48.670;18.260;2023-02-19T06:07:35;205.60;1612.80
49052;DHT22;34866;48.670;18.260;2023-02-19T06:10:07;205.60;1612.80
49052;DHT22;34866;48.670;18.260;2023-02-19T06:12:33;205.70;1331.20
49052;DHT22;34866;48.670;18.260;2023-02-19T06:14:59;205.70;1382.40
49052;DHT22;34866;48.670;18.260;2023-02-19T06:17:25;230.40;1459.20
49052;DHT22;34866;48.670;18.260;2023-02-19T06:19:50;205.70;1459.20
49052;DHT22;34866;48.670;18.260;2023-02-19T06:22:16;205.60;1612.80
49052;DHT22;34866;48.670;18.260;2023-02-19T06:24:42;205.50;1638.40
49052;DHT22;34866;48.670;18.260;2023-02-19T06:27:08;205.60;1510.40
49052;DHT22;34866;48.670;18.260;2023-02-19T06:29:34;205.60;1510.40
49052;DHT22;34866;48.670;18.260;2023-02-19T06:32:03;205.50;1510.40
49052;DHT22;34866;48.670;18.260;2023-02-19T06:34:29;205.50;1740.80
49052;DHT22;34866;48.670;18.260;2023-02-19T06:36:55;205.50;1715.20
49052;DHT22;34866;48.670;18.260;2023-02-19T06:39:21;205.50;1740.80
49052;DHT22;34866;48.670;18.260;2023-02-19T06:41:46;205.40;1971.20
49052;DHT22;34866;48.670;18.260;2023-02-19T06:44:12;205.30;2073.60
49052;DHT22;34866;48.670;18.260;2023-02-19T06:46:38;205.40;2048.00
49052;DHT22;34866;48.670;18.260;2023-02-19T06:49:05;205.40;2048.00
49052;DHT22;34866;48.670;18.260;2023-02-19T06:51:31;205.40;1996.80
49052;DHT22;34866;48.670;18.260;2023-02-19T06:54:00;205.40;2022.40
49052;DHT22;34866;48.670;18.260;2023-02-19T06:56:34;205.30;2176.00
49052;DHT22;34866;48.670;18.260;2023-02-19T06:59:02;205.40;2048.00
49052;DHT22;34866;48.670;18.260;2023-02-19T07:01:29;205.50;1868.80
49052;DHT22;34866;48.670;18.260;2023-02-19T07:03:56;205.50;1638.40
49052;DHT22;34866;48.670;18.260;2023-02-19T07:06:23;205.50;1561.60
49052;DHT22;34866;48.670;18.260;2023-02-19T07:08:50;205.70;1203.20
49052;DHT22;34866;48.670;18.260;2023-02-19T07:11:16;205.60;1254.40
49052;DHT22;34866;48.670;18.260;2023-02-19T07:13:45;205.70;1177.60
49052;DHT22;34866;48.670;18.260;2023-02-19T07:16:12;205.70;1024.00
49052;DHT22;34866;48.670;18.260;2023-02-19T07:18:40;205.60;1177.60
49052;DHT22;34866;48.670;18.260;2023-02-19T07:21:11;205.50;1356.80
49052;DHT22;34866;48.670;18.260;2023-02-19T07:23:37;205.60;1100.80
49052;DHT22;34866;48.670;18.260;2023-02-19T07:26:06;230.40;768.00
49052;DHT22;34866;48.670;18.260;2023-02-19T07:28:32;205.70;819.20
49052;DHT22;34866;48.670;18.260;2023-02-19T07:31:02;230.50;409.60
49052;DHT22;34866;48.670;18.260;2023-02-19T07:33:29;205.70;768.00
49052;DHT22;34866;48.670;18.260;2023-02-19T07:35:55;230.40;691.20
49052;DHT22;34866;48.670;18.260;2023-02-19T07:38:24;230.40;742.40
49052;DHT22;34866;48.670;18.260;2023-02-19T07:43:17;230.40;716.80
49052;DHT22;34866;48.670;18.260;2023-02-19T07:45:43;230.60;460.80
49052;DHT22;34866;48.670;18.260;2023-02-19T07:48:08;230.50;640.00
49052;DHT22;34866;48.670;18.260;2023-02-19T07:50:34;230.40;768.00
49052;DHT22;34866;48.670;18.260;2023-02-19T07:53:00;230.40;793.60
49052;DHT22;34866;48.670;18.260;2023-02-19T07:55:25;230.40;921.60
49052;DHT22;34866;48.670;18.260;2023-02-19T07:57:51;230.40;844.80
49052;DHT22;34866;48.670;18.260;2023-02-19T08:00:17;205.70;998.40
49052;DHT22;34866;48.670;18.260;2023-02-19T08:02:44;205.70;1254.40
49052;DHT22;34866;48.670;18.260;2023-02-19T08:05:35;205.60;1433.60
49052;DHT22;34866;48.670;18.260;2023-02-19T08:08:04;205.60;1587.20
49052;DHT22;34866;48.670;18.260;2023-02-19T08:10:30;205.60;1587.20
49052;DHT22;34866;48.670;18.260;2023-02-19T08:13:15;205.50;1843.20
49052;DHT22;34866;48.670;18.260;2023-02-19T08:15:49;205.60;2201.60
49052;DHT22;34866;48.670;18.260;2023-02-19T08:18:15;205.50;2252.80
49052;DHT22;34866;48.670;18.260;2023-02-19T08:20:41;205.40;2252.80
49052;DHT22;34866;48.670;18.260;2023-02-19T08:23:08;205.40;2252.80
49052;DHT22;34866;48.670;18.260;2023-02-19T08:25:34;205.40;2252.80
49052;DHT22;34866;48.670;18.260;2023-02-19T08:28:00;205.30;2252.80
49052;DHT22;34866;48.670;18.260;2023-02-19T08:30:27;205.20;2252.80
49052;DHT22;34866;48.670;18.260;2023-02-19T08:32:53;205.20;2252.80
49052;DHT22;34866;48.670;18.260;2023-02-19T08:35:19;205.20;2252.80
49052;DHT22;34866;48.670;18.260;2023-02-19T08:37:45;205.20;2252.80
49052;DHT22;34866;48.670;18.260;2023-02-19T08:40:11;205.20;2048.00
49052;DHT22;34866;48.670;18.260;2023-02-19T08:42:36;205.20;2252.80
49052;DHT22;34866;48.670;18.260;2023-02-19T08:45:03;205.30;2252.80
49052;DHT22;34866;48.670;18.260;2023-02-19T08:47:28;205.20;2252.80
49052;DHT22;34866;48.670;18.260;2023-02-19T08:49:54;205.50;2252.80
49052;DHT22;34866;48.670;18.260;2023-02-19T08:52:20;205.50;2252.80
49052;DHT22;34866;48.670;18.260;2023-02-19T08:54:45;205.50;2252.80
49052;DHT22;34866;48.670;18.260;2023-02-19T08:57:11;205.60;2252.80
49052;DHT22;34866;48.670;18.260;2023-02-19T08:59:37;205.60;2252.80
49052;DHT22;34866;48.670;18.260;2023-02-19T09:02:02;205.70;2252.80
49052;DHT22;34866;48.670;18.260;2023-02-19T09:04:28;205.70;2252.80
49052;DHT22;34866;48.670;18.260;2023-02-19T09:06:54;205.70;2252.80
49052;DHT22;34866;48.670;18.260;2023-02-19T09:09:19;230.40;2252.80
49052;DHT22;34866;48.670;18.260;2023-02-19T09:11:46;230.50;2252.80
49052;DHT22;34866;48.670;18.260;2023-02-19T09:14:11;230.60;2252.80
49052;DHT22;34866;48.670;18.260;2023-02-19T09:16:37;230.60;2252.80
49052;DHT22;34866;48.670;18.260;2023-02-19T09:19:03;230.70;2252.80
49052;DHT22;34866;48.670;18.260;2023-02-19T09:21:29;230.70;2252.80
49052;DHT22;34866;48.670;18.260;2023-02-19T09:23:55;230.70;2252.80
49052;DHT22;34866;48.670;18.260;2023-02-19T09:26:21;230.60;2252.80
49052;DHT22;34866;48.670;18.260;2023-02-19T09:28:46;230.50;2252.80
49052;DHT22;34866;48.670;18.260;2023-02-19T09:31:14;230.60;2252.80
49052;DHT22;34866;48.670;18.260;2023-02-19T09:33:47;230.70;2252.80
49052;DHT22;34866;48.670;18.260;2023-02-19T09:36:14;230.90;2252.80
49052;DHT22;34866;48.670;18.260;2023-02-19T09:38:40;231.00;2252.80
49052;DHT22;34866;48.670;18.260;2023-02-19T09:41:13;231.20;2252.80
49052;DHT22;34866;48.670;18.260;2023-02-19T09:43:40;231.10;2252.80
49052;DHT22;34866;48.670;18.260;2023-02-19T09:49:12;231.10;2252.80
49052;DHT22;34866;48.670;18.260;2023-02-19T09:51:41;231.10;2252.80
49052;DHT22;34866;48.670;18.260;2023-02-19T09:54:16;231.30;2252.80
49052;DHT22;34866;48.670;18.260;2023-02-19T09:56:43;256.10;2252.80
49052;DHT22;34866;48.670;18.260;2023-02-19T09:59:18;256.10;2252.80
49052;DHT22;34866;48.670;18.260;2023-02-19T10:01:47;256.10;2252.80
49052;DHT22;34866;48.670;18.260;2023-02-19T10:04:13;256.30;2252.80
49052;DHT22;34866;48.670;18.260;2023-02-19T10:06:39;256.30;2252.80
49052;DHT22;34866;48.670;18.260;2023-02-19T10:09:25;256.40;2252.80
49052;DHT22;34866;48.670;18.260;2023-02-19T10:11:53;256.30;2252.80
49052;DHT22;34866;48.670;18.260;2023-02-19T10:14:31;256.60;2201.60
49052;DHT22;34866;48.670;18.260;2023-02-19T10:17:00;256.70;1843.20
49052;DHT22;34866;48.670;18.260;2023-02-19T10:19:26;256.80;1536.00
49052;DHT22;34866;48.670;18.260;2023-02-19T10:21:52;256.80;1305.60
49052;DHT22;34866;48.670;18.260;2023-02-19T10:24:26;256.90;1254.40
49052;DHT22;34866;48.670;18.260;2023-02-19T10:26:52;281.80;1100.80
49052;DHT22;34866;48.670;18.260;2023-02-19T10:29:18;256.90;1024.00
49052;DHT22;34866;48.670;18.260;2023-02-19T10:31:44;256.90;793.60
49052;DHT22;34866;48.670;18.260;2023-02-19T10:34:21;256.90;844.80
49052;DHT22;34866;48.670;18.260;2023-02-19T10:36:50;256.70;1024.00
49052;DHT22;34866;48.670;18.260;2023-02-19T10:42:01;256.80;819.20
49052;DHT22;34866;48.670;18.260;2023-02-19T10:44:37;256.80;563.20
49052;DHT22;34866;48.670;18.260;2023-02-19T10:47:05;256.80;153.60
49052;DHT22;34866;48.670;18.260;2023-02-19T10:49:34;256.80;512.00
49052;DHT22;34866;48.670;18.260;2023-02-19T10:54:42;256.60;640.00
49052;DHT22;34866;48.670;18.260;2023-02-19T10:57:25;256.70;716.80
49052;DHT22;34866;48.670;18.260;2023-02-19T11:02:42;256.50;1382.40
49052;DHT22;34866;48.670;18.260;2023-02-19T11:07:38;256.50;1638.40
49052;DHT22;34866;48.670;18.260;2023-02-19T11:10:39;256.50;1920.00
49052;DHT22;34866;48.670;18.260;2023-02-19T11:13:06;256.70;1766.40
49052;DHT22;34866;48.670;18.260;2023-02-19T11:15:35;256.70;1817.60
49052;DHT22;34866;48.670;18.260;2023-02-19T11:18:20;256.70;1664.00
49052;DHT22;34866;48.670;18.260;2023-02-19T11:20:58;256.90;1305.60
49052;DHT22;34866;48.670;18.260;2023-02-19T11:23:30;281.70;1049.60
49052;DHT22;34866;48.670;18.260;2023-02-19T11:25:58;281.80;281.60
49052;DHT22;34866;48.670;18.260;2023-02-19T11:28:34;282.00;512.00
49052;DHT22;34866;48.670;18.260;2023-02-19T11:38:47;282.00;435.20
49052;DHT22;34866;48.670;18.260;2023-02-19T11:52:45;256.80;1203.20
49052;DHT22;34866;48.670;18.260;2023-02-19T12:01:26;256.70;1254.40
49052;DHT22;34866;48.670;18.260;2023-02-19T12:04:07;256.70;1561.60
49052;DHT22;34866;48.670;18.260;2023-02-19T12:09:38;281.80;1177.60
49052;DHT22;34866;48.670;18.260;2023-02-19T12:12:22;282.30;947.20
49052;DHT22;34866;48.670;18.260;2023-02-19T12:25:40;281.80;1843.20
49052;DHT22;34866;48.670;18.260;2023-02-19T12:44:56;281.70;204.80
49052;DHT22;34866;48.670;18.260;2023-02-19T12:47:28;281.60;6528.00
49052;DHT22;34866;48.670;18.260;2023-02-19T12:52:31;281.60;384.00
49052;DHT22;34866;48.670;18.260;2023-02-19T12:55:16;281.60;6528.00
49052;DHT22;34866;48.670;18.260;2023-02-19T12:57:44;281.60;6528.00
49052;DHT22;34866;48.670;18.260;2023-02-19T13:00:39;256.90;6502.40
49052;DHT22;34866;48.670;18.260;2023-02-19T13:03:23;281.60;179.20
49052;DHT22;34866;48.670;18.260;2023-02-19T13:09:02;256.50;128.00
49052;DHT22;34866;48.670;18.260;2023-02-19T13:11:55;230.70;1280.00
49052;DHT22;34866;48.670;18.260;2023-02-19T13:14:36;230.40;2227.20
49052;DHT22;34866;48.670;18.260;2023-02-19T13:17:18;205.60;2252.80
49052;DHT22;34866;48.670;18.260;2023-02-19T13:19:48;205.60;2252.80
49052;DHT22;34866;48.670;18.260;2023-02-19T13:25:09;205.40;2252.80
49052;DHT22;34866;48.670;18.260;2023-02-19T13:36:26;205.40;2252.80
49052;DHT22;34866;48.670;18.260;2023-02-19T13:38:53;205.30;2252.80
49052;DHT22;34866;48.670;18.260;2023-02-19T13:41:30;205.20;2252.80
49052;DHT22;34866;48.670;18.260;2023-02-19T13:44:02;205.40;2252.80
49052;DHT22;34866;48.670;18.260;2023-02-19T13:46:49;205.50;2252.80
49052;DHT22;34866;48.670;18.260;2023-02-19T13:51:53;230.40;2252.80
49052;DHT22;34866;48.670;18.260;2023-02-19T13:54:30;230.50;2252.80
49052;DHT22;34866;48.670;18.260;2023-02-19T13:59:55;230.50;2252.80
49052;DHT22;34866;48.670;18.260;2023-02-19T14:05:09;230.70;2252.80
49052;DHT22;34866;48.670;18.260;2023-02-19T14:07:50;230.80;2252.80
49052;DHT22;34866;48.670;18.260;2023-02-19T14:10:54;230.80;2252.80
49052;DHT22;34866;48.670;18.260;2023-02-19T14:19:12;230.70;2252.80
49052;DHT22;34866;48.670;18.260;2023-02-19T14:21:39;230.70;2252.80
49052;DHT22;34866;48.670;18.260;2023-02-19T14:24:10;230.60;2252.80
49052;DHT22;34866;48.670;18.260;2023-02-19T14:26:50;230.60;2252.80
49052;DHT22;34866;48.670;18.260;2023-02-19T14:29:16;230.60;2252.80
49052;DHT22;34866;48.670;18.260;2023-02-19T14:31:44;230.50;2252.80
49052;DHT22;34866;48.670;18.260;2023-02-19T14:34:21;230.50;2252.80
49052;DHT22;34866;48.670;18.260;2023-02-19T14:36:51;230.40;2252.80
49052;DHT22;34866;48.670;18.260;2023-02-19T14:39:30;205.70;2252.80
49052;DHT22;34866;48.670;18.260;2023-02-19T14:42:05;205.70;2252.80
49052;DHT22;34866;48.670;18.260;2023-02-19T14:44:55;205.60;2252.80
49052;DHT22;34866;48.670;18.260;2023-02-19T14:47:24;205.60;2252.80
49052;DHT22;34866;48.670;18.260;2023-02-19T14:50:11;205.50;2252.80
49052;DHT22;34866;48.670;18.260;2023-02-19T14:52:39;205.50;2252.80
49052;DHT22;34866;48.670;18.260;2023-02-19T14:55:22;205.50;2252.80
49052;DHT22;34866;48.670;18.260;2023-02-19T14:57:52;205.40;2252.80
49052;DHT22;34866;48.670;18.260;2023-02-19T15:00:30;205.40;2252.80
49052;DHT22;34866;48.670;18.260;2023-02-19T15:02:57;205.40;2252.80
49052;DHT22;34866;48.670;18.260;2023-02-19T15:05:28;205.40;2252.80
49052;DHT22;34866;48.670;18.260;2023-02-19T15:07:56;205.40;2252.80
49052;DHT22;34866;48.670;18.260;2023-02-19T15:10:23;205.40;2252.80
49052;DHT22;34866;48.670;18.260;2023-02-19T15:13:04;205.40;1868.80
49052;DHT22;34866;48.670;18.260;2023-02-19T15:15:37;205.30;2252.80
49052;DHT22;34866;48.670;18.260;2023-02-19T15:18:05;205.30;2252.80
49052;DHT22;34866;48.670;18.260;2023-02-19T15:20:36;205.30;2252.80
49052;DHT22;34866;48.670;18.260;2023-02-19T15:23:05;205.20;2252.80
49052;DHT22;34866;48.670;18.260;2023-02-19T15:25:38;205.30;2176.00
49052;DHT22;34866;48.670;18.260;2023-02-19T15:28:26;205.40;2252.80
49052;DHT22;34866;48.670;18.260;2023-02-19T15:33:21;205.40;2252.80
49052;DHT22;34866;48.670;18.260;2023-02-19T15:35:49;205.30;2252.80
49052;DHT22;34866;48.670;18.260;2023-02-19T15:38:16;205.30;2252.80
49052;DHT22;34866;48.670;18.260;2023-02-19T15:40:46;205.20;2252.80
49052;DHT22;34866;48.670;18.260;2023-02-19T15:43:40;205.20;2252.80
49052;DHT22;34866;48.670;18.260;2023-02-19T15:46:20;205.00;2227.20
49052;DHT22;34866;48.670;18.260;2023-02-19T15:54:24;205.00;2252.80
49052;DHT22;34866;48.670;18.260;2023-02-19T15:56:53;205.00;2252.80
49052;DHT22;34866;48.670;18.260;2023-02-19T15:59:37;205.10;2252.80
49052;DHT22;34866;48.670;18.260;2023-02-19T16:02:07;205.40;2252.80
49052;DHT22;34866;48.670;18.260;2023-02-19T16:04:34;205.50;2252.80
49052;DHT22;34866;48.670;18.260;2023-02-19T16:07:01;205.60;2252.80
49052;DHT22;34866;48.670;18.260;2023-02-19T16:09:36;205.50;2252.80
49052;DHT22;34866;48.670;18.260;2023-02-19T16:12:24;205.40;2252.80
49052;DHT22;34866;48.670;18.260;2023-02-19T16:14:49;205.30;2252.80
49052;DHT22;34866;48.670;18.260;2023-02-19T16:17:20;205.50;2252.80
49052;DHT22;34866;48.670;18.260;2023-02-19T16:19:55;205.40;2252.80
49052;DHT22;34866;48.670;18.260;2023-02-19T16:22:24;205.30;2227.20
49052;DHT22;34866;48.670;18.260;2023-02-19T16:29:53;205.50;409.60
49052;DHT22;34866;48.670;18.260;2023-02-19T16:32:18;205.50;6502.40
49052;DHT22;34866;48.670;18.260;2023-02-19T16:34:50;205.30;665.60
49052;DHT22;34866;48.670;18.260;2023-02-19T16:42:32;205.00;921.60
49052;DHT22;34866;48.670;18.260;2023-02-19T16:44:58;204.90;1408.00
49052;DHT22;34866;48.670;18.260;2023-02-19T16:47:36;204.90;1433.60
49052;DHT22;34866;48.670;18.260;2023-02-19T16:50:10;204.80;1766.40
49052;DHT22;34866;48.670;18.260;2023-02-19T16:52:48;180.10;2252.80
49052;DHT22;34866;48.670;18.260;2023-02-19T16:55:14;180.00;2252.80
49052;DHT22;34866;48.670;18.260;2023-02-19T16:57:39;179.90;2252.80
49052;DHT22;34866;48.670;18.260;2023-02-19T17:00:05;179.80;2252.80
49052;DHT22;34866;48.670;18.260;2023-02-19T17:02:31;179.70;2252.80
49052;DHT22;34866;48.670;18.260;2023-02-19T17:04:58;179.70;2252.80
49052;DHT22;34866;48.670;18.260;2023-02-19T17:07:25;179.70;2252.80
49052;DHT22;34866;48.670;18.260;2023-02-19T17:09:52;179.70;2252.80
49052;DHT22;34866;48.670;18.260;2023-02-19T17:12:17;179.60;2252.80
49052;DHT22;34866;48.670;18.260;2023-02-19T17:14:43;179.50;2252.80
49052;DHT22;34866;48.670;18.260;2023-02-19T17:17:09;179.40;2252.80